sensor_id;sensor_type;location;lat;lon;timestamp;pressure;altitude;pressure_sealevel;temperature;humidity
22333;BME280;11334;36.986;-121.936;2023-04-06T00:02:00;101702.47;;;24.33;24.42
22333;BME280;11334;36.986;-121.936;2023-04-06T00:04:26;101697.41;;;24.60;25.13
22333;BME280;11334;36.986;-121.936;2023-04-06T00:06:52;101697.88;;;24.75;25.46
22333;BME280;11334;36.986;-121.936;2023-04-06T00:09:19;101694.34;;;24.74;25.10
22333;BME280;11334;36.986;-121.936;2023-04-06T00:11:45;101689.38;;;24.54;24.81
22333;BME280;11334;36.986;-121.936;2023-04-06T00:14:14;101689.69;;;24.40;25.12
22333;BME280;11334;36.986;-121.936;2023-04-06T00:16:42;101687.69;;;24.29;24.93
22333;BME280;11334;36.986;-121.936;2023-04-06T00:19:09;101687.78;;;24.22;25.76
22333;BME280;11334;36.986;-121.936;2023-04-06T00:21:36;101674.75;;;23.82;27.50
22333;BME280;11334;36.986;-121.936;2023-04-06T00:24:02;101693.66;;;23.52;26.50
22333;BME280;11334;36.986;-121.936;2023-04-06T00:26:29;101685.28;;;23.16;26.16
22333;BME280;11334;36.986;-121.936;2023-04-06T00:28:55;101685.59;;;22.89;26.44
22333;BME280;11334;36.986;-121.936;2023-04-06T00:31:22;101690.19;;;22.76;27.42
22333;BME280;11334;36.986;-121.936;2023-04-06T00:33:49;101687.94;;;22.60;27.88
22333;BME280;11334;36.986;-121.936;2023-04-06T00:36:15;101687.06;;;22.79;27.92
22333;BME280;11334;36.986;-121.936;2023-04-06T00:38:41;101687.25;;;22.90;27.35
22333;BME280;11334;36.986;-121.936;2023-04-06T00:41:08;101687.88;;;22.99;27.75
22333;BME280;11334;36.986;-121.936;2023-04-06T00:43:34;101687.69;;;23.37;27.27
22333;BME280;11334;36.986;-121.936;2023-04-06T00:46:00;101682.69;;;24.32;25.16
22333;BME280;11334;36.986;-121.936;2023-04-06T00:48:29;101690.06;;;25.38;23.83
22333;BME280;11334;36.986;-121.936;2023-04-06T00:50:57;101678.78;;;26.67;22.64
22333;BME280;11334;36.986;-121.936;2023-04-06T00:53:24;101675.41;;;27.93;21.59
22333;BME280;11334;36.986;-121.936;2023-04-06T00:55:51;101668.28;;;29.11;20.45
22333;BME280;11334;36.986;-121.936;2023-04-06T00:58:17;101675.00;;;30.24;19.65
22333;BME280;11334;36.986;-121.936;2023-04-06T01:00:43;101664.44;;;31.29;18.45
22333;BME280;11334;36.986;-121.936;2023-04-06T01:03:10;101662.94;;;32.12;17.84
22333;BME280;11334;36.986;-121.936;2023-04-06T01:05:36;101665.66;;;32.66;17.87
22333;BME280;11334;36.986;-121.936;2023-04-06T01:08:08;101657.16;;;32.77;17.25
22333;BME280;11334;36.986;-121.936;2023-04-06T01:10:35;101658.53;;;32.65;15.98
22333;BME280;11334;36.986;-121.936;2023-04-06T01:13:01;101653.91;;;32.41;17.41
22333;BME280;11334;36.986;-121.936;2023-04-06T01:15:28;101658.28;;;31.97;18.07
22333;BME280;11334;36.986;-121.936;2023-04-06T01:17:55;101663.91;;;31.32;18.61
22333;BME280;11334;36.986;-121.936;2023-04-06T01:20:21;101653.41;;;30.68;19.51
22333;BME280;11334;36.986;-121.936;2023-04-06T01:22:48;101663.69;;;30.16;20.00
22333;BME280;11334;36.986;-121.936;2023-04-06T01:25:14;101658.44;;;29.57;20.58
22333;BME280;11334;36.986;-121.936;2023-04-06T01:27:40;101651.94;;;28.94;20.87
22333;BME280;11334;36.986;-121.936;2023-04-06T01:30:07;101660.09;;;28.20;22.44
22333;BME280;11334;36.986;-121.936;2023-04-06T01:32:33;101654.25;;;27.40;22.59
22333;BME280;11334;36.986;-121.936;2023-04-06T01:35:00;101663.88;;;26.58;23.20
22333;BME280;11334;36.986;-121.936;2023-04-06T01:37:26;101668.53;;;26.06;24.68
22333;BME280;11334;36.986;-121.936;2023-04-06T01:39:53;101672.00;;;25.43;25.81
22333;BME280;11334;36.986;-121.936;2023-04-06T01:42:19;101664.16;;;24.71;27.10
22333;BME280;11334;36.986;-121.936;2023-04-06T01:44:45;101655.47;;;24.21;27.87
22333;BME280;11334;36.986;-121.936;2023-04-06T01:47:11;101661.13;;;23.65;29.37
22333;BME280;11334;36.986;-121.936;2023-04-06T01:49:38;101657.72;;;23.32;28.86
22333;BME280;11334;36.986;-121.936;2023-04-06T01:52:04;101657.94;;;22.94;28.86
22333;BME280;11334;36.986;-121.936;2023-04-06T01:54:30;101657.41;;;22.41;30.55
22333;BME280;11334;36.986;-121.936;2023-04-06T01:56:57;101654.34;;;22.12;30.88
22333;BME280;11334;36.986;-121.936;2023-04-06T01:59:23;101658.03;;;21.91;30.76
22333;BME280;11334;36.986;-121.936;2023-04-06T02:01:49;101658.22;;;21.64;31.41
22333;BME280;11334;36.986;-121.936;2023-04-06T02:04:16;101654.66;;;21.38;31.95
22333;BME280;11334;36.986;-121.936;2023-04-06T02:06:42;101658.72;;;21.22;32.38
22333;BME280;11334;36.986;-121.936;2023-04-06T02:09:08;101658.19;;;20.86;33.48
22333;BME280;11334;36.986;-121.936;2023-04-06T02:11:35;101654.34;;;20.68;34.73
22333;BME280;11334;36.986;-121.936;2023-04-06T02:14:01;101660.59;;;20.48;35.77
22333;BME280;11334;36.986;-121.936;2023-04-06T02:16:27;101662.31;;;20.22;36.99
22333;BME280;11334;36.986;-121.936;2023-04-06T02:18:54;101660.09;;;20.04;38.46
22333;BME280;11334;36.986;-121.936;2023-04-06T02:21:20;101658.53;;;19.89;38.68
22333;BME280;11334;36.986;-121.936;2023-04-06T02:23:47;101666.13;;;19.65;39.26
22333;BME280;11334;36.986;-121.936;2023-04-06T02:26:13;101661.19;;;19.48;40.20
22333;BME280;11334;36.986;-121.936;2023-04-06T02:28:40;101657.50;;;19.34;40.50
22333;BME280;11334;36.986;-121.936;2023-04-06T02:31:07;101663.25;;;19.11;40.96
22333;BME280;11334;36.986;-121.936;2023-04-06T02:33:33;101672.38;;;18.96;41.69
22333;BME280;11334;36.986;-121.936;2023-04-06T02:36:00;101667.53;;;18.91;42.36
22333;BME280;11334;36.986;-121.936;2023-04-06T02:38:26;101670.75;;;18.72;42.84
22333;BME280;11334;36.986;-121.936;2023-04-06T02:40:52;101673.19;;;18.53;42.97
22333;BME280;11334;36.986;-121.936;2023-04-06T02:43:19;101675.88;;;18.39;42.86
22333;BME280;11334;36.986;-121.936;2023-04-06T02:45:45;101668.25;;;18.28;42.88
22333;BME280;11334;36.986;-121.936;2023-04-06T02:48:11;101661.88;;;18.15;43.40
22333;BME280;11334;36.986;-121.936;2023-04-06T02:50:38;101681.84;;;18.12;43.63
22333;BME280;11334;36.986;-121.936;2023-04-06T02:53:04;101681.59;;;18.00;43.66
22333;BME280;11334;36.986;-121.936;2023-04-06T02:55:30;101689.44;;;17.87;43.52
22333;BME280;11334;36.986;-121.936;2023-04-06T02:57:56;101680.19;;;17.67;44.08
22333;BME280;11334;36.986;-121.936;2023-04-06T03:00:23;101685.72;;;17.66;43.86
22333;BME280;11334;36.986;-121.936;2023-04-06T03:02:49;101684.16;;;17.49;44.60
22333;BME280;11334;36.986;-121.936;2023-04-06T03:05:15;101689.19;;;17.30;44.88
22333;BME280;11334;36.986;-121.936;2023-04-06T03:07:42;101685.13;;;17.34;44.85
22333;BME280;11334;36.986;-121.936;2023-04-06T03:10:08;101686.34;;;17.23;44.40
22333;BME280;11334;36.986;-121.936;2023-04-06T03:12:35;101686.91;;;17.11;45.02
22333;BME280;11334;36.986;-121.936;2023-04-06T03:15:01;101694.94;;;17.11;45.29
22333;BME280;11334;36.986;-121.936;2023-04-06T03:17:28;101680.97;;;16.93;44.50
22333;BME280;11334;36.986;-121.936;2023-04-06T03:19:54;101694.34;;;16.93;44.88
22333;BME280;11334;36.986;-121.936;2023-04-06T03:22:20;101697.63;;;16.73;46.18
22333;BME280;11334;36.986;-121.936;2023-04-06T03:24:47;101703.47;;;16.69;45.97
22333;BME280;11334;36.986;-121.936;2023-04-06T03:27:13;101695.81;;;16.58;46.57
22333;BME280;11334;36.986;-121.936;2023-04-06T03:29:40;101706.06;;;16.46;46.87
22333;BME280;11334;36.986;-121.936;2023-04-06T03:32:06;101709.59;;;16.39;47.30
22333;BME280;11334;36.986;-121.936;2023-04-06T03:34:32;101705.88;;;16.40;47.79
22333;BME280;11334;36.986;-121.936;2023-04-06T03:36:59;101707.91;;;16.30;47.89
22333;BME280;11334;36.986;-121.936;2023-04-06T03:39:25;101702.09;;;16.19;48.45
22333;BME280;11334;36.986;-121.936;2023-04-06T03:41:51;101690.88;;;15.92;48.79
22333;BME280;11334;36.986;-121.936;2023-04-06T03:44:17;101705.75;;;15.94;49.68
22333;BME280;11334;36.986;-121.936;2023-04-06T03:46:44;101707.28;;;15.89;49.92
22333;BME280;11334;36.986;-121.936;2023-04-06T03:49:10;101711.44;;;15.91;50.13
22333;BME280;11334;36.986;-121.936;2023-04-06T03:51:36;101702.91;;;15.72;50.88
22333;BME280;11334;36.986;-121.936;2023-04-06T03:54:02;101724.09;;;15.66;51.44
22333;BME280;11334;36.986;-121.936;2023-04-06T03:56:29;101727.59;;;15.58;51.75
22333;BME280;11334;36.986;-121.936;2023-04-06T03:58:55;101722.25;;;15.50;52.76
22333;BME280;11334;36.986;-121.936;2023-04-06T04:01:21;101724.91;;;15.43;52.34
22333;BME280;11334;36.986;-121.936;2023-04-06T04:03:48;101727.22;;;15.38;52.53
22333;BME280;11334;36.986;-121.936;2023-04-06T04:06:14;101730.66;;;15.15;53.96
22333;BME280;11334;36.986;-121.936;2023-04-06T04:08:40;101736.53;;;15.18;53.57
22333;BME280;11334;36.986;-121.936;2023-04-06T04:11:07;101739.06;;;14.94;55.81
22333;BME280;11334;36.986;-121.936;2023-04-06T04:13:33;101739.38;;;14.91;55.60
22333;BME280;11334;36.986;-121.936;2023-04-06T04:15:59;101739.06;;;14.94;56.06
22333;BME280;11334;36.986;-121.936;2023-04-06T04:18:25;101737.34;;;14.85;55.61
22333;BME280;11334;36.986;-121.936;2023-04-06T04:20:52;101742.00;;;14.84;56.22
22333;BME280;11334;36.986;-121.936;2023-04-06T04:23:18;101742.59;;;14.70;57.02
22333;BME280;11334;36.986;-121.936;2023-04-06T04:25:44;101739.56;;;14.65;57.24
22333;BME280;11334;36.986;-121.936;2023-04-06T04:28:13;101744.38;;;14.61;57.23
22333;BME280;11334;36.986;-121.936;2023-04-06T04:30:40;101739.06;;;14.61;56.82
22333;BME280;11334;36.986;-121.936;2023-04-06T04:33:06;101753.88;;;14.56;57.04
22333;BME280;11334;36.986;-121.936;2023-04-06T04:35:32;101755.13;;;14.44;58.60
22333;BME280;11334;36.986;-121.936;2023-04-06T04:37:58;101755.16;;;14.27;59.38
22333;BME280;11334;36.986;-121.936;2023-04-06T04:40:25;101760.25;;;14.21;60.15
22333;BME280;11334;36.986;-121.936;2023-04-06T04:42:51;101764.56;;;14.14;59.24
22333;BME280;11334;36.986;-121.936;2023-04-06T04:45:17;101768.00;;;14.06;60.66
22333;BME280;11334;36.986;-121.936;2023-04-06T04:47:43;101770.16;;;13.93;60.90
22333;BME280;11334;36.986;-121.936;2023-04-06T04:50:10;101754.28;;;13.67;61.88
22333;BME280;11334;36.986;-121.936;2023-04-06T04:52:37;101778.69;;;13.80;61.57
22333;BME280;11334;36.986;-121.936;2023-04-06T04:55:04;101779.00;;;13.77;61.87
22333;BME280;11334;36.986;-121.936;2023-04-06T04:57:30;101780.28;;;13.73;62.55
22333;BME280;11334;36.986;-121.936;2023-04-06T04:59:56;101790.63;;;13.58;63.51
22333;BME280;11334;36.986;-121.936;2023-04-06T05:02:23;101792.63;;;13.57;63.91
22333;BME280;11334;36.986;-121.936;2023-04-06T05:04:50;101796.94;;;13.57;62.58
22333;BME280;11334;36.986;-121.936;2023-04-06T05:07:16;101781.63;;;13.42;63.42
22333;BME280;11334;36.986;-121.936;2023-04-06T05:09:44;101792.41;;;13.41;63.62
22333;BME280;11334;36.986;-121.936;2023-04-06T05:12:10;101791.34;;;13.34;64.00
22333;BME280;11334;36.986;-121.936;2023-04-06T05:14:37;101793.38;;;13.23;64.61
22333;BME280;11334;36.986;-121.936;2023-04-06T05:17:03;101792.72;;;13.11;65.49
22333;BME280;11334;36.986;-121.936;2023-04-06T05:19:29;101802.00;;;13.07;65.60
22333;BME280;11334;36.986;-121.936;2023-04-06T05:21:56;101794.59;;;13.01;66.04
22333;BME280;11334;36.986;-121.936;2023-04-06T05:24:22;101794.88;;;12.98;65.43
22333;BME280;11334;36.986;-121.936;2023-04-06T05:26:49;101799.41;;;12.89;66.70
22333;BME280;11334;36.986;-121.936;2023-04-06T05:29:16;101802.50;;;12.75;67.35
22333;BME280;11334;36.986;-121.936;2023-04-06T05:31:42;101789.50;;;12.72;67.56
22333;BME280;11334;36.986;-121.936;2023-04-06T05:34:09;101803.63;;;12.82;66.56
22333;BME280;11334;36.986;-121.936;2023-04-06T05:36:36;101784.59;;;12.67;66.64
22333;BME280;11334;36.986;-121.936;2023-04-06T05:39:02;101793.69;;;12.65;67.27
22333;BME280;11334;36.986;-121.936;2023-04-06T05:41:28;101801.56;;;12.57;67.32
22333;BME280;11334;36.986;-121.936;2023-04-06T05:43:55;101802.69;;;12.55;66.85
22333;BME280;11334;36.986;-121.936;2023-04-06T05:46:24;101801.84;;;12.54;66.58
22333;BME280;11334;36.986;-121.936;2023-04-06T05:48:50;101801.16;;;12.52;67.02
22333;BME280;11334;36.986;-121.936;2023-04-06T05:51:16;101803.56;;;12.46;67.79
22333;BME280;11334;36.986;-121.936;2023-04-06T05:53:42;101805.81;;;12.41;66.78
22333;BME280;11334;36.986;-121.936;2023-04-06T05:56:09;101790.69;;;12.41;66.19
22333;BME280;11334;36.986;-121.936;2023-04-06T05:58:35;101806.78;;;12.40;67.60
22333;BME280;11334;36.986;-121.936;2023-04-06T06:01:01;101813.09;;;12.20;69.48
22333;BME280;11334;36.986;-121.936;2023-04-06T06:03:29;101800.81;;;12.10;69.71
22333;BME280;11334;36.986;-121.936;2023-04-06T06:06:04;101820.81;;;12.14;69.85
22333;BME280;11334;36.986;-121.936;2023-04-06T06:08:33;101810.72;;;12.08;69.40
22333;BME280;11334;36.986;-121.936;2023-04-06T06:10:59;101802.06;;;11.97;70.57
22333;BME280;11334;36.986;-121.936;2023-04-06T06:13:26;101786.53;;;11.83;69.86
22333;BME280;11334;36.986;-121.936;2023-04-06T06:15:53;101807.09;;;11.90;70.33
22333;BME280;11334;36.986;-121.936;2023-04-06T06:18:19;101802.91;;;11.88;70.04
22333;BME280;11334;36.986;-121.936;2023-04-06T06:20:46;101806.25;;;11.80;70.01
22333;BME280;11334;36.986;-121.936;2023-04-06T06:23:12;101815.19;;;11.79;70.18
22333;BME280;11334;36.986;-121.936;2023-04-06T06:25:39;101821.63;;;11.77;70.20
22333;BME280;11334;36.986;-121.936;2023-04-06T06:28:05;101822.34;;;11.79;70.47
22333;BME280;11334;36.986;-121.936;2023-04-06T06:30:31;101816.31;;;11.77;70.16
22333;BME280;11334;36.986;-121.936;2023-04-06T06:32:57;101814.88;;;11.64;70.69
22333;BME280;11334;36.986;-121.936;2023-04-06T06:35:29;101814.63;;;11.67;70.96
22333;BME280;11334;36.986;-121.936;2023-04-06T06:37:55;101813.94;;;11.65;70.85
22333;BME280;11334;36.986;-121.936;2023-04-06T06:40:22;101817.25;;;11.57;71.43
22333;BME280;11334;36.986;-121.936;2023-04-06T06:42:49;101814.88;;;11.54;72.38
22333;BME280;11334;36.986;-121.936;2023-04-06T06:45:17;101807.88;;;11.53;71.47
22333;BME280;11334;36.986;-121.936;2023-04-06T06:47:43;101806.44;;;11.40;71.84
22333;BME280;11334;36.986;-121.936;2023-04-06T06:50:15;101815.50;;;11.37;72.33
22333;BME280;11334;36.986;-121.936;2023-04-06T06:52:42;101814.53;;;11.29;73.13
22333;BME280;11334;36.986;-121.936;2023-04-06T06:55:09;101813.53;;;11.30;72.81
22333;BME280;11334;36.986;-121.936;2023-04-06T06:57:36;101799.25;;;11.12;73.36
22333;BME280;11334;36.986;-121.936;2023-04-06T07:00:05;101821.34;;;11.22;72.78
22333;BME280;11334;36.986;-121.936;2023-04-06T07:02:34;101823.41;;;11.19;73.72
22333;BME280;11334;36.986;-121.936;2023-04-06T07:05:04;101817.66;;;11.04;74.03
22333;BME280;11334;36.986;-121.936;2023-04-06T07:07:32;101821.69;;;11.08;73.90
22333;BME280;11334;36.986;-121.936;2023-04-06T07:10:01;101818.31;;;10.97;74.73
22333;BME280;11334;36.986;-121.936;2023-04-06T07:12:27;101811.69;;;10.82;75.79
22333;BME280;11334;36.986;-121.936;2023-04-06T07:14:54;101806.78;;;10.78;75.69
22333;BME280;11334;36.986;-121.936;2023-04-06T07:17:20;101816.56;;;10.87;75.52
22333;BME280;11334;36.986;-121.936;2023-04-06T07:19:46;101810.75;;;10.93;75.46
22333;BME280;11334;36.986;-121.936;2023-04-06T07:22:13;101800.53;;;10.88;74.82
22333;BME280;11334;36.986;-121.936;2023-04-06T07:24:39;101808.50;;;10.88;75.14
22333;BME280;11334;36.986;-121.936;2023-04-06T07:27:05;101795.13;;;10.70;75.03
22333;BME280;11334;36.986;-121.936;2023-04-06T07:29:32;101800.88;;;10.74;75.93
22333;BME280;11334;36.986;-121.936;2023-04-06T07:31:59;101799.31;;;10.72;75.73
22333;BME280;11334;36.986;-121.936;2023-04-06T07:34:25;101798.38;;;10.73;75.80
22333;BME280;11334;36.986;-121.936;2023-04-06T07:36:51;101772.97;;;10.71;75.96
22333;BME280;11334;36.986;-121.936;2023-04-06T07:39:19;101789.53;;;10.63;76.07
22333;BME280;11334;36.986;-121.936;2023-04-06T07:41:48;101792.56;;;10.59;76.02
22333;BME280;11334;36.986;-121.936;2023-04-06T07:44:15;101764.81;;;10.53;75.53
22333;BME280;11334;36.986;-121.936;2023-04-06T07:46:41;101788.44;;;10.66;75.72
22333;BME280;11334;36.986;-121.936;2023-04-06T07:49:07;101791.16;;;10.55;76.90
22333;BME280;11334;36.986;-121.936;2023-04-06T07:51:39;101788.47;;;10.45;77.15
22333;BME280;11334;36.986;-121.936;2023-04-06T07:54:06;101781.53;;;10.54;76.51
22333;BME280;11334;36.986;-121.936;2023-04-06T07:56:32;101771.84;;;10.43;76.52
22333;BME280;11334;36.986;-121.936;2023-04-06T07:58:58;101786.13;;;10.52;76.27
22333;BME280;11334;36.986;-121.936;2023-04-06T08:01:24;101759.72;;;10.41;76.11
22333;BME280;11334;36.986;-121.936;2023-04-06T08:03:51;101784.50;;;10.40;76.81
22333;BME280;11334;36.986;-121.936;2023-04-06T08:06:18;101773.28;;;10.27;78.04
22333;BME280;11334;36.986;-121.936;2023-04-06T08:08:44;101780.28;;;10.28;78.29
22333;BME280;11334;36.986;-121.936;2023-04-06T08:11:10;101773.72;;;10.32;77.65
22333;BME280;11334;36.986;-121.936;2023-04-06T08:13:36;101780.94;;;10.30;77.64
22333;BME280;11334;36.986;-121.936;2023-04-06T08:16:03;101783.75;;;10.29;77.44
22333;BME280;11334;36.986;-121.936;2023-04-06T08:18:29;101741.97;;;10.12;76.57
22333;BME280;11334;36.986;-121.936;2023-04-06T08:20:56;101757.91;;;10.21;76.84
22333;BME280;11334;36.986;-121.936;2023-04-06T08:23:22;101783.16;;;10.25;76.77
22333;BME280;11334;36.986;-121.936;2023-04-06T08:25:49;101769.41;;;10.11;77.71
22333;BME280;11334;36.986;-121.936;2023-04-06T08:28:15;101780.28;;;10.08;78.47
22333;BME280;11334;36.986;-121.936;2023-04-06T08:30:44;101783.59;;;10.10;78.56
22333;BME280;11334;36.986;-121.936;2023-04-06T08:33:11;101780.84;;;10.11;78.10
22333;BME280;11334;36.986;-121.936;2023-04-06T08:35:37;101771.16;;;10.01;79.12
22333;BME280;11334;36.986;-121.936;2023-04-06T08:38:04;101774.44;;;9.94;79.09
22333;BME280;11334;36.986;-121.936;2023-04-06T08:40:36;101779.50;;;9.86;79.25
22333;BME280;11334;36.986;-121.936;2023-04-06T08:43:03;101779.50;;;9.86;79.59
22333;BME280;11334;36.986;-121.936;2023-04-06T08:45:34;101788.75;;;9.80;79.93
22333;BME280;11334;36.986;-121.936;2023-04-06T08:48:03;101782.28;;;9.84;79.42
22333;BME280;11334;36.986;-121.936;2023-04-06T08:50:32;101786.72;;;9.84;79.54
22333;BME280;11334;36.986;-121.936;2023-04-06T08:52:59;101782.06;;;9.77;80.16
22333;BME280;11334;36.986;-121.936;2023-04-06T08:55:26;101785.25;;;9.60;80.83
22333;BME280;11334;36.986;-121.936;2023-04-06T08:57:53;101784.03;;;9.64;81.29
22333;BME280;11334;36.986;-121.936;2023-04-06T09:00:21;101787.72;;;9.72;80.71
22333;BME280;11334;36.986;-121.936;2023-04-06T09:02:49;101765.28;;;9.56;80.64
22333;BME280;11334;36.986;-121.936;2023-04-06T09:05:18;101779.75;;;9.52;81.78
22333;BME280;11334;36.986;-121.936;2023-04-06T09:07:45;101773.94;;;9.58;81.49
22333;BME280;11334;36.986;-121.936;2023-04-06T09:10:11;101779.25;;;9.58;81.05
22333;BME280;11334;36.986;-121.936;2023-04-06T09:12:37;101776.56;;;9.69;80.35
22333;BME280;11334;36.986;-121.936;2023-04-06T09:15:04;101773.31;;;9.65;80.00
22333;BME280;11334;36.986;-121.936;2023-04-06T09:17:32;101769.75;;;9.55;80.71
22333;BME280;11334;36.986;-121.936;2023-04-06T09:20:00;101763.25;;;9.59;80.50
22333;BME280;11334;36.986;-121.936;2023-04-06T09:22:36;101758.84;;;9.49;81.14
22333;BME280;11334;36.986;-121.936;2023-04-06T09:25:03;101765.09;;;9.48;80.89
22333;BME280;11334;36.986;-121.936;2023-04-06T09:27:34;101762.69;;;9.45;81.35
22333;BME280;11334;36.986;-121.936;2023-04-06T09:30:04;101756.94;;;9.40;81.41
22333;BME280;11334;36.986;-121.936;2023-04-06T09:32:31;101753.19;;;9.43;81.13
22333;BME280;11334;36.986;-121.936;2023-04-06T09:35:08;101749.47;;;9.45;80.90
22333;BME280;11334;36.986;-121.936;2023-04-06T09:37:34;101761.03;;;9.44;80.73
22333;BME280;11334;36.986;-121.936;2023-04-06T09:40:05;101746.94;;;9.44;80.96
22333;BME280;11334;36.986;-121.936;2023-04-06T09:42:33;101755.84;;;9.43;80.49
22333;BME280;11334;36.986;-121.936;2023-04-06T09:45:03;101747.34;;;9.39;81.06
22333;BME280;11334;36.986;-121.936;2023-04-06T09:47:35;101746.56;;;9.48;81.09
22333;BME280;11334;36.986;-121.936;2023-04-06T09:50:03;101750.56;;;9.43;81.13
22333;BME280;11334;36.986;-121.936;2023-04-06T09:52:37;101742.78;;;9.30;81.58
22333;BME280;11334;36.986;-121.936;2023-04-06T09:55:05;101743.25;;;9.35;81.22
22333;BME280;11334;36.986;-121.936;2023-04-06T09:57:57;101748.19;;;9.29;81.71
22333;BME280;11334;36.986;-121.936;2023-04-06T10:00:25;101726.09;;;9.19;81.38
22333;BME280;11334;36.986;-121.936;2023-04-06T10:05:52;101741.38;;;9.15;81.67
22333;BME280;11334;36.986;-121.936;2023-04-06T10:08:23;101745.94;;;9.13;82.62
22333;BME280;11334;36.986;-121.936;2023-04-06T10:10:51;101748.13;;;9.19;82.15
22333;BME280;11334;36.986;-121.936;2023-04-06T10:13:19;101757.00;;;9.18;82.42
22333;BME280;11334;36.986;-121.936;2023-04-06T10:15:45;101750.63;;;9.21;82.24
22333;BME280;11334;36.986;-121.936;2023-04-06T10:18:12;101761.81;;;9.13;82.87
22333;BME280;11334;36.986;-121.936;2023-04-06T10:21:15;101762.53;;;9.15;82.67
22333;BME280;11334;36.986;-121.936;2023-04-06T10:23:55;101755.31;;;9.07;83.22
22333;BME280;11334;36.986;-121.936;2023-04-06T10:26:23;101757.00;;;8.97;83.99
22333;BME280;11334;36.986;-121.936;2023-04-06T10:28:50;101758.97;;;8.95;84.07
22333;BME280;11334;36.986;-121.936;2023-04-06T10:31:27;101756.53;;;8.92;84.19
22333;BME280;11334;36.986;-121.936;2023-04-06T10:33:58;101752.44;;;8.99;83.74
22333;BME280;11334;36.986;-121.936;2023-04-06T10:36:27;101736.34;;;9.02;83.20
22333;BME280;11334;36.986;-121.936;2023-04-06T10:38:58;101739.00;;;9.02;83.54
22333;BME280;11334;36.986;-121.936;2023-04-06T10:41:49;101745.50;;;8.98;84.11
22333;BME280;11334;36.986;-121.936;2023-04-06T10:44:23;101734.56;;;8.91;84.42
22333;BME280;11334;36.986;-121.936;2023-04-06T10:46:55;101733.00;;;8.89;84.44
22333;BME280;11334;36.986;-121.936;2023-04-06T10:49:22;101729.63;;;8.87;84.21
22333;BME280;11334;36.986;-121.936;2023-04-06T10:51:53;101721.09;;;8.94;83.95
22333;BME280;11334;36.986;-121.936;2023-04-06T10:54:21;101724.25;;;8.88;83.90
22333;BME280;11334;36.986;-121.936;2023-04-06T10:56:48;101713.44;;;8.91;84.28
22333;BME280;11334;36.986;-121.936;2023-04-06T10:59:19;101707.19;;;8.92;83.77
22333;BME280;11334;36.986;-121.936;2023-04-06T11:01:46;101704.31;;;8.84;84.08
22333;BME280;11334;36.986;-121.936;2023-04-06T11:04:19;101690.75;;;8.78;84.27
22333;BME280;11334;36.986;-121.936;2023-04-06T11:06:49;101706.13;;;8.84;83.87
22333;BME280;11334;36.986;-121.936;2023-04-06T11:09:26;101699.88;;;8.74;84.77
22333;BME280;11334;36.986;-121.936;2023-04-06T11:11:53;101693.91;;;8.72;84.72
22333;BME280;11334;36.986;-121.936;2023-04-06T11:14:20;101686.56;;;8.76;84.88
22333;BME280;11334;36.986;-121.936;2023-04-06T11:16:47;101689.56;;;8.82;84.18
22333;BME280;11334;36.986;-121.936;2023-04-06T11:19:17;101665.94;;;8.59;84.35
22333;BME280;11334;36.986;-121.936;2023-04-06T11:21:47;101682.16;;;8.65;84.85
22333;BME280;11334;36.986;-121.936;2023-04-06T11:29:13;101655.13;;;8.73;85.42
22333;BME280;11334;36.986;-121.936;2023-04-06T11:31:41;101657.88;;;8.71;85.33
22333;BME280;11334;36.986;-121.936;2023-04-06T11:34:12;101644.19;;;8.66;85.52
22333;BME280;11334;36.986;-121.936;2023-04-06T11:36:41;101647.06;;;8.74;85.15
22333;BME280;11334;36.986;-121.936;2023-04-06T11:39:08;101637.38;;;8.53;86.10
22333;BME280;11334;36.986;-121.936;2023-04-06T11:41:35;101623.47;;;8.51;85.60
22333;BME280;11334;36.986;-121.936;2023-04-06T11:44:02;101640.13;;;8.62;85.91
22333;BME280;11334;36.986;-121.936;2023-04-06T11:46:29;101640.81;;;8.64;86.08
22333;BME280;11334;36.986;-121.936;2023-04-06T11:49:02;101642.84;;;8.72;85.76
22333;BME280;11334;36.986;-121.936;2023-04-06T11:51:28;101638.66;;;8.80;85.53
22333;BME280;11334;36.986;-121.936;2023-04-06T11:53:55;101635.28;;;8.78;85.66
22333;BME280;11334;36.986;-121.936;2023-04-06T11:56:31;101639.75;;;8.78;84.86
22333;BME280;11334;36.986;-121.936;2023-04-06T11:58:58;101635.41;;;8.77;85.56
22333;BME280;11334;36.986;-121.936;2023-04-06T12:01:27;101629.06;;;8.68;85.77
22333;BME280;11334;36.986;-121.936;2023-04-06T12:03:53;101635.53;;;8.75;85.78
22333;BME280;11334;36.986;-121.936;2023-04-06T12:06:19;101639.38;;;8.71;86.13
22333;BME280;11334;36.986;-121.936;2023-04-06T12:08:46;101646.94;;;8.76;86.17
22333;BME280;11334;36.986;-121.936;2023-04-06T12:11:12;101644.81;;;8.70;86.46
22333;BME280;11334;36.986;-121.936;2023-04-06T12:13:38;101641.69;;;8.65;86.79
22333;BME280;11334;36.986;-121.936;2023-04-06T12:16:05;101646.38;;;8.72;86.67
22333;BME280;11334;36.986;-121.936;2023-04-06T12:18:31;101656.47;;;8.67;86.87
22333;BME280;11334;36.986;-121.936;2023-04-06T12:20:58;101635.94;;;8.60;87.14
22333;BME280;11334;36.986;-121.936;2023-04-06T12:23:24;101638.19;;;8.64;87.29
22333;BME280;11334;36.986;-121.936;2023-04-06T12:25:50;101643.56;;;8.74;86.21
22333;BME280;11334;36.986;-121.936;2023-04-06T12:28:17;101647.06;;;8.74;86.04
22333;BME280;11334;36.986;-121.936;2023-04-06T12:30:43;101652.25;;;8.65;86.47
22333;BME280;11334;36.986;-121.936;2023-04-06T12:33:10;101653.44;;;8.61;87.68